Time;durP1;ratioP1;P1;durP2;ratioP2;P2;SDS_P1;SDS_P2;PMS_P1;PMS_P2;Temp;Humidity;BMP_temperature;BMP_pressure;BME280_temperature;BME280_humidity;BME280_pressure;Samples;Min_cycle;Max_cycle;Signal;HPM_P1;HPM_P2
2023/07/13 00:00:56;;;;;;;1.83;1.03;;;;;;;22.26;47.08;98653.56;5135588;27;43165;-86
2023/07/13 00:03:24;;;;;;;1.63;1.20;;;;;;;22.30;47.27;98679.19;5135746;27;43142;-85
2023/07/13 00:05:58;;;;;;;1.37;1.00;;;;;;;22.24;46.97;98669.13;5116862;27;39509;-84
2023/07/13 00:08:26;;;;;;;2.03;0.90;;;;;;;22.12;47.32;98662.41;5131377;27;41563;-82
2023/07/13 00:10:54;;;;;;;2.30;1.40;;;;;;;21.97;47.42;98664.09;5116296;27;42947;-79
2023/07/13 00:13:22;;;;;;;1.63;1.10;;;;;;;22.01;47.11;98693.25;5116788;27;42176;-81
2023/07/13 00:15:53;;;;;;;1.47;1.37;;;;;;;21.94;47.56;98703.03;5116781;27;41220;-81
2023/07/13 00:18:21;;;;;;;1.80;1.10;;;;;;;21.80;47.73;98691.09;5134309;27;40954;-79
2023/07/13 00:20:49;;;;;;;1.17;0.97;;;;;;;21.82;47.75;98694.47;5133809;27;43462;-83
2023/07/13 00:23:17;;;;;;;2.00;1.23;;;;;;;21.72;47.70;98677.63;5134103;27;40683;-83
2023/07/13 00:25:45;;;;;;;1.70;1.23;;;;;;;21.68;47.71;98687.06;5116540;27;39217;-83
2023/07/13 00:28:12;;;;;;;2.63;1.13;;;;;;;21.59;48.37;98693.47;5135449;27;42792;-85
2023/07/13 00:30:40;;;;;;;1.37;1.17;;;;;;;21.55;48.16;98699.38;5133438;27;42921;-80
2023/07/13 00:33:09;;;;;;;2.00;1.23;;;;;;;21.50;48.60;98689.13;5134088;27;42018;-84
2023/07/13 00:35:39;;;;;;;2.07;1.30;;;;;;;21.45;48.14;98692.31;5116729;27;38394;-81
2023/07/13 00:38:07;;;;;;;1.23;1.13;;;;;;;21.36;48.20;98671.78;5135007;27;42479;-86
2023/07/13 00:40:35;;;;;;;2.43;1.00;;;;;;;21.22;48.19;98658.13;5134573;27;43890;-86
2023/07/13 00:43:04;;;;;;;1.67;1.00;;;;;;;21.26;48.31;98683.72;5117984;27;41221;-78
2023/07/13 00:46:16;;;;;;;1.13;1.00;;;;;;;21.17;48.58;98672.91;5117304;27;39180;-80
2023/07/13 00:48:47;;;;;;;1.73;1.40;;;;;;;21.09;48.53;98683.69;5106911;27;41516;-81
2023/07/13 00:51:20;;;;;;;1.40;1.07;;;;;;;21.00;48.62;98676.59;5133814;27;42942;-78
2023/07/13 00:53:48;;;;;;;1.43;1.10;;;;;;;20.94;48.43;98676.41;5129498;27;42245;-84
2023/07/13 00:56:16;;;;;;;1.20;1.10;;;;;;;20.79;48.76;98668.97;5115973;27;39777;-85
2023/07/13 00:58:46;;;;;;;1.23;1.13;;;;;;;20.79;48.69;98685.13;5115576;27;40600;-78
2023/07/13 01:01:14;;;;;;;1.40;1.30;;;;;;;20.73;48.82;98690.34;5133311;27;41775;-81
2023/07/13 01:03:42;;;;;;;1.10;1.00;;;;;;;20.50;49.25;98663.19;5133342;27;41195;-83
2023/07/13 01:06:12;;;;;;;2.20;1.20;;;;;;;20.61;48.99;98692.50;5116155;27;40234;-83
2023/07/13 01:08:40;;;;;;;2.20;1.00;;;;;;;20.56;49.24;98688.59;5117009;27;40581;-77
2023/07/13 01:11:09;;;;;;;1.50;1.00;;;;;;;20.49;49.34;98688.41;5116978;27;42660;-84
2023/07/13 01:13:37;;;;;;;1.90;1.30;;;;;;;20.43;49.43;98697.97;5139445;27;42297;-79
2023/07/13 01:16:14;;;;;;;1.23;1.10;;;;;;;20.38;49.60;98699.47;5128327;27;38705;-76
2023/07/13 01:18:42;;;;;;;1.77;0.90;;;;;;;20.27;49.67;98697.88;5137631;27;42085;-80
2023/07/13 01:21:11;;;;;;;1.10;0.80;;;;;;;20.27;49.75;98699.72;5116526;27;43127;-80
2023/07/13 01:23:42;;;;;;;1.20;1.07;;;;;;;20.19;50.08;98692.44;5116652;27;41133;-86
2023/07/13 01:26:10;;;;;;;2.17;1.07;;;;;;;20.16;50.10;98703.50;5133055;27;40339;-80
2023/07/13 01:28:38;;;;;;;1.20;0.90;;;;;;;20.10;50.06;98698.78;5115614;27;40832;-77
2023/07/13 01:31:09;;;;;;;0.93;0.90;;;;;;;20.05;50.22;98701.94;5115655;27;42862;-88
2023/07/13 01:33:39;;;;;;;1.33;1.10;;;;;;;19.91;50.09;98686.41;5133129;27;42362;-79
2023/07/13 01:36:07;;;;;;;1.40;1.30;;;;;;;19.96;50.14;98708.28;5132765;27;39766;-81
2023/07/13 01:38:37;;;;;;;2.93;1.40;;;;;;;19.79;50.06;98682.28;5115794;27;40441;-79
2023/07/13 01:41:05;;;;;;;1.20;1.10;;;;;;;19.77;50.51;98687.00;5115506;27;42024;-79
2023/07/13 01:43:32;;;;;;;1.10;1.00;;;;;;;19.80;50.74;98701.94;5115769;27;42367;-81
2023/07/13 01:46:01;;;;;;;2.17;1.20;;;;;;;19.73;51.10;98702.59;5132767;27;39807;-79
2023/07/13 01:48:28;;;;;;;1.87;1.17;;;;;;;19.37;51.13;98656.13;5133999;27;41756;-84
2023/07/13 01:50:56;;;;;;;1.67;1.10;;;;;;;19.54;51.22;98686.66;5115050;27;41691;-84
2023/07/13 01:53:24;;;;;;;0.93;0.90;;;;;;;19.57;51.64;98701.63;5132304;27;41046;-75
2023/07/13 01:55:53;;;;;;;1.67;1.30;;;;;;;19.51;51.79;98697.72;5132279;27;39956;-81
2023/07/13 01:58:20;;;;;;;1.27;1.13;;;;;;;19.48;52.27;98703.38;5133807;27;41683;-79
2023/07/13 02:00:49;;;;;;;1.70;1.00;;;;;;;19.44;52.11;98718.09;5132318;27;43197;-84
2023/07/13 02:03:18;;;;;;;1.30;1.00;;;;;;;19.41;51.97;98723.78;5115258;27;41340;-80
2023/07/13 02:05:46;;;;;;;1.50;1.07;;;;;;;19.35;51.70;98724.41;5132196;27;40753;-86
2023/07/13 02:08:13;;;;;;;1.90;1.03;;;;;;;19.35;52.01;98732.47;5132669;27;42620;-80
2023/07/13 02:10:41;;;;;;;1.03;0.97;;;;;;;19.30;51.89;98732.91;5114736;27;41655;-85
2023/07/13 02:13:10;;;;;;;2.03;1.20;;;;;;;19.26;52.06;98730.72;5115298;27;41345;-86
2023/07/13 02:15:40;;;;;;;2.00;1.30;;;;;;;19.23;51.89;98725.66;5132361;27;39660;-81
2023/07/13 02:18:08;;;;;;;1.70;0.90;;;;;;;19.09;52.02;98710.91;5132791;27;42506;-78
2023/07/13 02:20:36;;;;;;;0.90;0.90;;;;;;;19.05;52.94;98700.63;5115159;27;42068;-82
2023/07/13 02:23:04;;;;;;;1.20;1.10;;;;;;;19.11;52.77;98729.56;5132182;27;42125;-82
2023/07/13 02:25:31;;;;;;;1.50;1.00;;;;;;;19.08;53.10;98722.66;5131719;27;40069;-83
2023/07/13 02:27:59;;;;;;;1.47;1.30;;;;;;;19.04;53.18;98731.19;5115097;27;41016;-85
2023/07/13 02:30:29;;;;;;;1.67;1.10;;;;;;;18.98;53.54;98722.72;5132083;27;42682;-78
2023/07/13 02:32:57;;;;;;;1.50;1.30;;;;;;;18.91;52.98;98721.66;5132291;27;42948;-88
2023/07/13 02:35:24;;;;;;;1.80;1.20;;;;;;;18.92;53.22;98734.06;5133130;27;40312;-81
2023/07/13 02:37:53;;;;;;;2.23;1.30;;;;;;;18.88;53.20;98737.22;5114959;27;41737;-86
2023/07/13 02:40:20;;;;;;;1.80;1.33;;;;;;;18.85;53.20;98727.63;5114591;27;41973;-83
2023/07/13 02:42:48;;;;;;;1.63;1.17;;;;;;;18.81;53.39;98742.31;5114362;27;41412;-82
2023/07/13 02:45:16;;;;;;;2.47;1.27;;;;;;;18.78;53.15;98748.00;5131694;27;40910;-84
2023/07/13 02:47:46;;;;;;;2.33;1.40;;;;;;;18.75;53.01;98742.94;5114512;27;40276;-86
2023/07/13 02:50:14;;;;;;;1.10;1.03;;;;;;;18.63;53.43;98728.03;5131089;27;42589;-84
2023/07/13 02:52:41;;;;;;;2.37;1.37;;;;;;;18.65;53.67;98737.63;5114106;27;41346;-80
2023/07/13 02:55:10;;;;;;;2.27;1.20;;;;;;;18.63;53.63;98738.78;5131432;27;39790;-82
2023/07/13 02:57:38;;;;;;;1.23;1.10;;;;;;;18.62;53.96;98743.28;5131580;27;41557;-84
2023/07/13 03:00:07;;;;;;;1.90;1.30;;;;;;;18.60;54.18;98739.06;5131227;27;42330;-81
2023/07/13 03:02:36;;;;;;;1.73;1.10;;;;;;;18.58;54.07;98736.53;5114395;27;41127;-81
2023/07/13 03:05:06;;;;;;;1.70;1.00;;;;;;;18.57;53.91;98728.59;5114027;27;38993;-79
2023/07/13 03:07:34;;;;;;;2.93;1.20;;;;;;;18.55;54.42;98733.25;5114260;27;41867;-85
2023/07/13 03:10:01;;;;;;;2.40;1.60;;;;;;;18.53;54.53;98735.25;5131244;27;42689;-81
2023/07/13 03:12:40;;;;;;;3.93;1.50;;;;;;;18.52;54.49;98731.75;5128510;27;42272;-82
2023/07/13 03:15:13;;;;;;;1.27;1.17;;;;;;;18.50;54.36;98727.50;5129192;27;39713;-80
2023/07/13 03:17:44;;;;;;;1.80;1.10;;;;;;;18.47;54.30;98727.81;5113808;27;40647;-85
2023/07/13 03:20:13;;;;;;;1.33;1.20;;;;;;;18.46;54.08;98747.56;5113981;27;41786;-83
2023/07/13 03:22:41;;;;;;;1.37;1.20;;;;;;;18.46;53.95;98758.28;5131439;27;42417;-87
2023/07/13 03:25:10;;;;;;;2.13;1.10;;;;;;;18.42;54.39;98752.38;5114242;27;39055;-80
2023/07/13 03:27:38;;;;;;;1.80;1.33;;;;;;;18.41;54.35;98755.22;5113594;27;42203;-87
2023/07/13 03:30:10;;;;;;;2.87;1.10;;;;;;;18.39;53.97;98762.56;5131099;27;42475;-79
2023/07/13 03:32:38;;;;;;;1.47;1.10;;;;;;;18.34;54.28;98768.34;5130879;27;43186;-83
2023/07/13 03:35:07;;;;;;;2.20;1.27;;;;;;;18.33;54.40;98768.50;5130837;27;40326;-77
2023/07/13 03:37:42;;;;;;;1.60;1.20;;;;;;;18.29;54.42;98776.84;5114106;27;40957;-83
2023/07/13 03:40:11;;;;;;;0.93;0.93;;;;;;;18.18;53.96;98771.66;5113710;27;41703;-83
2023/07/13 03:42:39;;;;;;;2.73;1.10;;;;;;;18.21;54.31;98798.16;5131070;27;43083;-84
2023/07/13 03:45:08;;;;;;;1.47;1.30;;;;;;;18.16;54.62;98795.09;5113847;27;38692;-78
2023/07/13 03:47:37;;;;;;;2.60;1.20;;;;;;;18.14;54.71;98791.72;5114222;27;41542;-81
2023/07/13 03:50:07;;;;;;;1.00;0.90;;;;;;;18.11;54.80;98792.00;5113244;27;43380;-83
2023/07/13 03:52:36;;;;;;;1.73;1.10;;;;;;;18.11;54.87;98797.34;5131114;27;42286;-86
2023/07/13 03:55:05;;;;;;;0.90;0.80;;;;;;;18.10;54.84;98800.19;5113212;27;38814;-78
2023/07/13 03:57:34;;;;;;;1.70;1.30;;;;;;;18.10;55.99;98803.69;5113296;27;41126;-77
2023/07/13 04:00:05;;;;;;;1.30;1.10;;;;;;;18.13;56.24;98805.25;5113421;27;41960;-77
2023/07/13 04:02:43;;;;;;;3.00;1.50;;;;;;;18.17;56.70;98806.66;5129014;27;42241;-89
2023/07/13 04:05:11;;;;;;;2.03;1.20;;;;;;;18.23;56.50;98808.75;5113631;27;38877;-89
2023/07/13 04:07:40;;;;;;;2.70;1.20;;;;;;;18.18;56.11;98787.72;5131008;27;42104;-89
2023/07/13 04:10:09;;;;;;;3.80;1.60;;;;;;;18.29;56.37;98795.63;5113363;27;41519;-80
2023/07/13 04:12:36;;;;;;;2.50;1.30;;;;;;;18.46;56.14;98818.13;5130810;27;43145;-81
2023/07/13 04:15:06;;;;;;;2.23;1.37;;;;;;;18.43;56.23;98796.13;5130617;27;40752;-80
2023/07/13 04:17:33;;;;;;;2.23;1.40;;;;;;;18.60;56.38;98808.78;5113449;27;41865;-84
2023/07/13 04:20:01;;;;;;;1.87;1.40;;;;;;;18.68;56.21;98811.56;5130481;27;42907;-79
2023/07/13 04:22:29;;;;;;;2.03;1.27;;;;;;;18.76;55.95;98814.38;5130204;27;42230;-88
2023/07/13 04:24:58;;;;;;;1.87;1.30;;;;;;;18.69;55.49;98797.16;5130638;27;39626;-76
2023/07/13 04:27:25;;;;;;;2.07;1.40;;;;;;;18.92;55.51;98819.94;5130691;27;42664;-85
2023/07/13 04:29:53;;;;;;;3.07;1.40;;;;;;;19.04;54.90;98834.00;5133684;27;43723;-79
2023/07/13 04:32:20;;;;;;;2.33;1.13;;;;;;;19.15;54.97;98843.72;5117182;27;41825;-90
2023/07/13 04:34:53;;;;;;;1.67;1.37;;;;;;;19.29;54.46;98845.84;5116574;27;39935;-79
2023/07/13 04:37:21;;;;;;;1.63;1.20;;;;;;;19.37;54.09;98835.22;5131412;27;41874;-88
2023/07/13 04:39:49;;;;;;;3.10;1.33;;;;;;;19.61;53.41;98848.09;5117099;27;42924;-82
2023/07/13 04:42:18;;;;;;;2.17;1.33;;;;;;;19.67;53.30;98839.41;5134272;27;42147;-84
2023/07/13 04:44:49;;;;;;;2.27;1.40;;;;;;;19.98;52.90;98855.97;5134115;27;40060;-82
2023/07/13 04:47:16;;;;;;;1.40;1.30;;;;;;;20.15;52.54;98865.03;5134312;27;39928;-85
2023/07/13 04:49:44;;;;;;;2.97;1.30;;;;;;;20.27;52.44;98861.94;5133436;27;42870;-85
2023/07/13 04:52:11;;;;;;;1.93;1.00;;;;;;;20.34;52.29;98873.75;5133866;27;41682;-79
2023/07/13 04:54:39;;;;;;;1.97;1.13;;;;;;;20.37;52.20;98876.16;5116524;27;39880;-85
2023/07/13 04:57:08;;;;;;;2.27;1.10;;;;;;;20.37;52.49;98873.47;5142763;27;41905;-78
2023/07/13 04:59:37;;;;;;;2.83;1.73;;;;;;;20.36;52.20;98882.53;5127342;27;41825;-80
2023/07/13 05:02:05;;;;;;;2.07;1.20;;;;;;;20.26;52.09;98875.53;5148085;27;42563;-76
2023/07/13 05:04:33;;;;;;;2.23;1.20;;;;;;;20.19;52.01;98869.91;5147216;27;39779;-76
2023/07/13 05:07:01;;;;;;;1.67;1.20;;;;;;;20.31;51.84;98884.81;5124167;27;40566;-76
2023/07/13 05:09:28;;;;;;;2.93;0.90;;;;;;;20.29;51.96;98892.19;5141967;27;41616;-80
2023/07/13 05:11:56;;;;;;;1.77;1.30;;;;;;;20.25;51.86;98890.81;5144018;27;41015;-78
2023/07/13 05:14:24;;;;;;;1.90;1.03;;;;;;;20.11;51.62;98877.94;5145710;27;41176;-76
2023/07/13 05:16:53;;;;;;;2.50;1.30;;;;;;;20.17;51.32;98904.19;5127968;27;40796;-75
2023/07/13 05:19:20;;;;;;;1.33;0.90;;;;;;;20.15;51.47;98895.44;5143918;27;44185;-76
2023/07/13 05:21:48;;;;;;;3.60;1.00;;;;;;;20.12;51.94;98905.66;5142876;27;42587;-75
2023/07/13 05:24:16;;;;;;;2.20;1.13;;;;;;;20.10;51.89;98903.13;5143457;27;39129;-86
2023/07/13 05:26:43;;;;;;;0.93;0.87;;;;;;;20.10;51.82;98897.75;5134285;27;40149;-79
2023/07/13 05:29:11;;;;;;;1.33;1.00;;;;;;;20.08;51.74;98894.38;5134666;27;43031;-86
2023/07/13 05:31:39;;;;;;;2.80;1.10;;;;;;;20.13;51.58;98896.59;5133335;27;42208;-85
2023/07/13 05:34:08;;;;;;;2.30;1.00;;;;;;;20.28;51.63;98905.78;5116099;27;38978;-82
2023/07/13 05:36:36;;;;;;;1.53;1.20;;;;;;;20.44;51.72;98906.78;5115904;27;42169;-86
2023/07/13 05:39:04;;;;;;;1.33;0.87;;;;;;;20.58;51.35;98891.06;5133032;27;41870;-85
2023/07/13 05:41:32;;;;;;;1.57;1.23;;;;;;;20.78;50.78;98906.84;5132585;27;42405;-82
2023/07/13 05:44:00;;;;;;;3.20;1.23;;;;;;;20.91;50.46;98914.50;5116307;27;38591;-85
2023/07/13 05:46:28;;;;;;;3.30;1.30;;;;;;;20.95;50.34;98910.47;5133943;27;42003;-81
2023/07/13 05:48:55;;;;;;;1.80;1.30;;;;;;;21.06;50.03;98912.88;5115710;27;41712;-81
2023/07/13 05:51:25;;;;;;;2.97;1.40;;;;;;;21.04;50.06;98887.97;5132996;27;43427;-88
2023/07/13 05:53:53;;;;;;;3.10;1.10;;;;;;;21.29;49.83;98920.44;5133566;27;38441;-81
2023/07/13 05:56:20;;;;;;;4.77;1.40;;;;;;;21.30;49.85;98919.41;5133020;27;41888;-84
2023/07/13 05:58:49;;;;;;;2.27;1.00;;;;;;;21.30;49.93;98914.03;5114850;27;43095;-79
2023/07/13 06:01:20;;;;;;;1.70;1.10;;;;;;;21.21;49.61;98904.25;5132157;27;43131;-78
2023/07/13 06:03:48;;;;;;;2.40;1.20;;;;;;;21.14;49.17;98893.25;5115057;27;39977;-78
2023/07/13 06:06:16;;;;;;;3.07;1.30;;;;;;;21.25;49.08;98922.63;5133488;27;41687;-78
2023/07/13 06:08:46;;;;;;;1.83;1.10;;;;;;;21.37;48.30;98931.25;5132049;27;42797;-77
2023/07/13 06:11:16;;;;;;;1.83;1.17;;;;;;;21.33;47.76;98935.28;5115179;27;41104;-79
2023/07/13 06:13:43;;;;;;;3.33;1.10;;;;;;;21.58;47.63;98944.28;5114787;27;38940;-79
2023/07/13 06:16:12;;;;;;;2.60;1.30;;;;;;;21.34;47.39;98900.09;5114129;27;41214;-79
2023/07/13 06:18:40;;;;;;;3.80;0.97;;;;;;;21.55;46.56;98934.66;5132023;27;42806;-79
2023/07/13 06:21:10;;;;;;;1.10;1.00;;;;;;;21.59;47.33;98946.81;5132102;27;42201;-78
2023/07/13 06:23:38;;;;;;;2.87;1.10;;;;;;;21.58;47.33;98942.44;5114740;27;38784;-78
2023/07/13 06:26:08;;;;;;;1.03;0.83;;;;;;;21.64;47.25;98949.00;5131452;27;42641;-79
2023/07/13 06:28:36;;;;;;;1.67;0.93;;;;;;;21.83;46.68;98954.97;5131810;27;42822;-78
2023/07/13 06:31:06;;;;;;;1.73;0.90;;;;;;;21.88;46.72;98945.56;5131748;27;42196;-80
2023/07/13 06:33:34;;;;;;;2.90;1.07;;;;;;;22.19;45.60;98954.72;5114295;27;40361;-77
2023/07/13 06:36:03;;;;;;;1.50;0.90;;;;;;;22.21;45.87;98902.31;5131529;27;42303;-80
2023/07/13 06:38:31;;;;;;;1.90;1.00;;;;;;;22.91;44.76;98977.34;5114436;27;41909;-78
2023/07/13 06:40:59;;;;;;;3.30;1.10;;;;;;;23.21;44.27;98963.09;5131344;27;42353;-80
2023/07/13 06:43:29;;;;;;;2.80;0.87;;;;;;;23.33;43.82;98960.03;5114331;27;39260;-79
2023/07/13 06:45:56;;;;;;;2.30;0.97;;;;;;;23.36;43.85;98971.34;5114401;27;40828;-79
2023/07/13 06:48:24;;;;;;;1.47;0.80;;;;;;;23.29;43.87;98965.78;5131009;27;42716;-79
2023/07/13 06:50:52;;;;;;;2.00;0.80;;;;;;;23.57;43.38;98981.59;5130583;27;41110;-79
2023/07/13 06:53:21;;;;;;;2.33;1.00;;;;;;;23.77;42.95;98980.13;5113685;27;41497;-80
2023/07/13 06:55:49;;;;;;;1.60;1.03;;;;;;;23.73;43.05;98988.78;5131084;27;42684;-80
2023/07/13 06:58:19;;;;;;;1.47;0.80;;;;;;;23.68;42.63;98981.19;5130956;27;43415;-80
2023/07/13 07:00:52;;;;;;;2.10;0.90;;;;;;;23.51;42.67;98979.56;5114389;27;41051;-79
2023/07/13 07:03:19;;;;;;;2.37;0.93;;;;;;;23.59;42.78;98993.06;5114147;27;38838;-79
2023/07/13 07:05:47;;;;;;;2.53;0.97;;;;;;;23.83;42.46;99001.06;5114413;27;41874;-80
2023/07/13 07:08:15;;;;;;;3.53;1.10;;;;;;;24.08;42.03;98999.09;5113895;27;42397;-79
2023/07/13 07:10:43;;;;;;;2.13;0.90;;;;;;;24.31;41.21;99009.97;5114141;27;41606;-78
2023/07/13 07:13:10;;;;;;;1.93;1.00;;;;;;;24.49;41.01;99010.50;5113777;27;40116;-79
2023/07/13 07:15:38;;;;;;;1.93;0.90;;;;;;;24.60;40.87;98988.41;5113429;27;42211;-79
2023/07/13 07:18:07;;;;;;;1.17;0.90;;;;;;;24.95;40.67;99010.50;5132212;27;42980;-80
2023/07/13 07:20:35;;;;;;;1.63;0.90;;;;;;;25.27;40.20;99017.44;5114017;27;42032;-80
2023/07/13 07:23:03;;;;;;;3.00;0.80;;;;;;;25.46;38.74;99021.50;5130823;27;40213;-79
2023/07/13 07:25:34;;;;;;;1.50;0.70;;;;;;;25.63;37.67;99033.84;5131180;27;40533;-79
2023/07/13 07:28:01;;;;;;;2.27;0.90;;;;;;;25.84;37.42;99043.97;5131063;27;42805;-79
2023/07/13 07:30:29;;;;;;;3.17;1.40;;;;;;;25.94;37.66;99037.22;5130590;27;43448;-80
2023/07/13 07:32:56;;;;;;;2.60;0.80;;;;;;;26.12;37.15;99042.22;5132345;27;41031;-79
2023/07/13 07:35:26;;;;;;;2.70;0.90;;;;;;;26.13;36.73;99031.16;5132244;27;41484;-77
2023/07/13 07:37:54;;;;;;;2.63;0.80;;;;;;;26.50;34.99;99051.03;5113036;27;42861;-79
2023/07/13 07:40:21;;;;;;;1.10;1.00;;;;;;;26.84;34.81;99053.03;5113647;27;41432;-79
2023/07/13 07:42:49;;;;;;;0.63;0.63;;;;;;;26.99;35.10;99055.72;5130956;27;40938;-80
2023/07/13 07:45:17;;;;;;;1.77;0.90;;;;;;;27.16;35.18;99048.97;5132174;27;42528;-78
2023/07/13 07:47:44;;;;;;;2.47;1.00;;;;;;;27.30;34.70;99056.19;5131080;27;42471;-78
2023/07/13 07:50:12;;;;;;;2.03;0.87;;;;;;;27.73;34.21;99045.19;5113137;27;40970;-78
2023/07/13 07:52:42;;;;;;;2.13;1.10;;;;;;;29.07;32.94;99065.31;5130830;27;40984;-78
2023/07/13 07:55:10;;;;;;;1.93;0.90;;;;;;;30.81;30.33;99067.16;5113581;27;40618;-78
2023/07/13 07:57:38;;;;;;;4.37;1.20;;;;;;;32.29;27.33;99090.03;5131411;27;42865;-79
2023/07/13 08:00:07;;;;;;;2.13;0.80;;;;;;;33.36;26.83;99090.19;5130407;27;42321;-79
2023/07/13 08:02:42;;;;;;;2.70;1.17;;;;;;;33.96;26.06;99100.97;5130514;27;38911;-78
2023/07/13 08:05:10;;;;;;;0.70;0.63;;;;;;;34.14;26.17;99098.06;5135194;27;42052;-78
2023/07/13 08:07:38;;;;;;;2.53;0.90;;;;;;;33.67;26.05;99097.25;5134067;27;42594;-79
2023/07/13 08:10:09;;;;;;;1.77;1.07;;;;;;;33.92;25.42;99111.59;5134033;27;41171;-78
2023/07/13 08:12:38;;;;;;;3.07;1.10;;;;;;;34.99;24.40;99113.84;5116759;27;40405;-79
2023/07/13 08:15:10;;;;;;;1.27;0.83;;;;;;;36.29;22.75;99113.47;5135357;27;41730;-79
2023/07/13 08:17:38;;;;;;;1.30;1.00;;;;;;;37.55;21.80;99126.97;5133512;27;42713;-79
2023/07/13 08:20:06;;;;;;;1.58;1.00;;;;;;;38.47;20.86;99132.81;5133916;27;41716;-79
2023/07/13 08:22:35;;;;;;;1.17;1.08;;;;;;;39.25;19.84;99149.41;5134729;27;39860;-78
2023/07/13 08:25:03;;;;;;;2.42;0.80;;;;;;;39.56;19.29;99136.44;5116488;27;41627;-80
2023/07/13 08:27:33;;;;;;;1.75;0.90;;;;;;;39.92;19.12;99131.72;5134708;27;43812;-80
2023/07/13 08:30:01;;;;;;;0.77;0.77;;;;;;;40.01;18.97;99137.50;5116066;27;42427;-80
2023/07/13 08:32:29;;;;;;;3.08;1.40;;;;;;;39.43;18.83;99148.09;5135675;27;40852;-79
2023/07/13 08:34:57;;;;;;;3.78;1.17;;;;;;;38.65;19.63;99150.91;5136420;27;41879;-79
2023/07/13 08:37:25;;;;;;;2.00;1.20;;;;;;;38.08;20.23;99112.97;5134744;27;42984;-79
2023/07/13 08:39:53;;;;;;;2.00;1.10;;;;;;;38.21;19.95;99138.50;5133645;27;41455;-77
2023/07/13 08:42:33;;;;;;;3.13;1.02;;;;;;;37.85;20.02;99118.06;5116440;27;38968;-80
2023/07/13 08:45:16;;;;;;;3.05;1.30;;;;;;;37.34;20.05;99135.06;5116818;27;40648;-80
2023/07/13 08:47:48;;;;;;;2.55;1.25;;;;;;;36.43;21.85;99117.50;5116343;27;42409;-79
2023/07/13 08:50:20;;;;;;;2.35;1.10;;;;;;;35.68;22.44;99111.72;5133660;27;41069;-79
2023/07/13 08:52:49;;;;;;;1.48;1.15;;;;;;;35.09;22.75;99112.09;5133798;27;41267;-79
2023/07/13 08:55:21;;;;;;;1.83;0.90;;;;;;;34.52;23.48;99105.75;5133712;27;42655;-78
2023/07/13 08:58:00;;;;;;;2.83;1.10;;;;;;;34.25;23.60;99110.94;5131848;27;42721;-79
2023/07/13 09:00:39;;;;;;;2.23;1.37;;;;;;;34.04;23.80;99104.16;5131343;27;42181;-77
2023/07/13 09:03:13;;;;;;;2.73;1.40;;;;;;;33.99;24.13;99100.50;5132309;27;39951;-79
2023/07/13 09:05:43;;;;;;;5.17;1.43;;;;;;;34.08;24.23;99110.88;5130227;27;41734;-78
2023/07/13 09:08:24;;;;;;;1.30;1.20;;;;;;;34.13;24.02;99113.72;5134069;27;42577;-79
2023/07/13 09:10:59;;;;;;;2.77;1.10;;;;;;;33.91;23.92;99087.09;5129848;27;42308;-80
2023/07/13 09:13:41;;;;;;;3.73;1.40;;;;;;;33.86;24.34;99107.06;5132957;27;40507;-78
2023/07/13 09:16:11;;;;;;;2.70;1.33;;;;;;;33.72;24.48;99105.63;5129201;27;41729;-76
2023/07/13 09:18:43;;;;;;;3.10;1.20;;;;;;;33.69;24.02;99095.94;5132758;27;43269;-80
2023/07/13 09:21:13;;;;;;;2.10;1.33;;;;;;;33.77;24.27;99092.84;5115860;27;41282;-78
2023/07/13 09:23:41;;;;;;;2.73;1.53;;;;;;;33.71;24.15;99099.28;5132986;27;40754;-78
2023/07/13 09:26:14;;;;;;;1.87;1.10;;;;;;;33.55;24.62;99100.00;5115481;27;41930;-79
2023/07/13 09:28:46;;;;;;;2.10;1.30;;;;;;;33.51;24.29;99093.28;5132659;27;42500;-77
2023/07/13 09:31:17;;;;;;;3.03;1.10;;;;;;;33.87;23.66;99100.50;5129684;27;41962;-79
2023/07/13 09:33:45;;;;;;;2.73;1.30;;;;;;;34.10;23.43;99107.88;5132751;27;38778;-77
2023/07/13 09:36:20;;;;;;;2.77;1.40;;;;;;;33.62;23.73;99100.72;5134195;27;41755;-79
2023/07/13 09:38:49;;;;;;;2.57;1.17;;;;;;;34.21;23.77;99105.09;5132313;27;41685;-77
2023/07/13 09:41:27;;;;;;;4.33;1.40;;;;;;;34.19;23.41;99106.41;5132550;27;42663;-79
2023/07/13 09:44:11;;;;;;;2.20;1.10;;;;;;;33.96;24.07;99103.72;5132679;27;39048;-79
2023/07/13 09:46:41;;;;;;;2.57;1.13;;;;;;;34.50;23.21;99107.91;5114830;27;40637;-79
2023/07/13 09:49:11;;;;;;;1.77;1.33;;;;;;;34.61;23.39;99106.22;5132168;27;41936;-80
2023/07/13 09:51:40;;;;;;;1.60;1.20;;;;;;;35.65;22.48;99102.03;5131686;27;40973;-78
2023/07/13 09:54:19;;;;;;;1.85;1.00;;;;;;;37.85;20.60;99116.13;5115364;27;38991;-78
2023/07/13 09:56:46;;;;;;;3.05;1.15;;;;;;;38.49;19.78;99128.94;5114723;27;40158;-80
2023/07/13 09:59:24;;;;;;;5.38;1.40;;;;;;;37.98;19.70;99099.06;5132183;27;43087;-81
2023/07/13 10:01:52;;;;;;;3.28;1.30;;;;;;;37.52;20.29;99130.25;5129443;27;42703;-78
2023/07/13 10:04:21;;;;;;;1.77;1.30;;;;;;;36.24;20.89;99121.66;5132260;27;39686;-79
2023/07/13 10:06:49;;;;;;;2.70;1.20;;;;;;;35.18;22.36;99094.09;5114775;27;40585;-81
2023/07/13 10:09:18;;;;;;;3.23;1.53;;;;;;;34.78;22.67;99104.34;5133459;27;42679;-80
2023/07/13 10:11:46;;;;;;;2.27;1.43;;;;;;;34.79;22.78;99112.38;5131776;27;42187;-79
2023/07/13 10:14:17;;;;;;;1.43;1.10;;;;;;;34.90;23.11;99108.72;5114877;27;40144;-78
2023/07/13 10:16:49;;;;;;;2.17;1.40;;;;;;;35.21;22.81;99103.78;5133679;27;41210;-78
2023/07/13 10:19:22;;;;;;;4.50;1.30;;;;;;;35.14;23.08;99106.66;5128826;27;42805;-79
2023/07/13 10:21:55;;;;;;;2.83;1.43;;;;;;;35.37;23.17;99104.88;5130642;27;42005;-78
2023/07/13 10:24:25;;;;;;;2.97;1.07;;;;;;;35.48;22.89;99109.50;5114615;27;39737;-78
2023/07/13 10:26:58;;;;;;;2.67;1.20;;;;;;;35.20;22.76;99102.94;5131329;27;40693;-77
2023/07/13 10:29:29;;;;;;;2.57;1.23;;;;;;;34.61;22.77;99109.81;5128821;27;42652;-78
2023/07/13 10:31:58;;;;;;;3.13;1.10;;;;;;;34.70;23.12;99107.47;5114646;27;42467;-78
2023/07/13 10:34:26;;;;;;;2.27;1.20;;;;;;;34.91;23.55;99104.06;5114367;27;40096;-80
2023/07/13 10:36:55;;;;;;;1.30;1.20;;;;;;;35.15;23.29;99093.75;5130778;27;40719;-79
2023/07/13 10:39:27;;;;;;;3.60;1.37;;;;;;;34.71;23.46;99107.25;5131435;27;42773;-79
2023/07/13 10:41:59;;;;;;;2.57;1.13;;;;;;;34.57;23.32;99112.19;5128482;27;42603;-79
2023/07/13 10:44:29;;;;;;;3.60;1.43;;;;;;;35.07;24.30;99092.25;5128411;27;40224;-79
2023/07/13 10:47:02;;;;;;;2.80;1.30;;;;;;;35.16;23.07;99078.88;5114131;27;40882;-79
2023/07/13 10:49:32;;;;;;;2.90;1.30;;;;;;;35.38;22.41;99087.25;5129497;27;43784;-78
2023/07/13 10:52:00;;;;;;;2.10;1.27;;;;;;;35.43;22.91;99087.34;5132611;27;42976;-78
2023/07/13 10:54:31;;;;;;;2.97;1.40;;;;;;;35.10;22.63;99094.50;5131041;27;38899;-79
2023/07/13 10:57:19;;;;;;;3.23;1.30;;;;;;;34.72;23.52;99099.81;5132191;27;20228;-79
2023/07/13 10:59:50;;;;;;;2.30;1.10;;;;;;;34.25;23.65;99108.19;5127997;27;42796;-78
2023/07/13 11:02:27;;;;;;;2.93;1.17;;;;;;;34.22;23.49;99098.53;5132383;27;41758;-79
2023/07/13 11:04:57;;;;;;;2.70;1.47;;;;;;;34.35;23.37;99089.19;5128240;27;40831;-80
2023/07/13 11:07:27;;;;;;;2.17;1.40;;;;;;;34.00;23.59;99082.94;5130992;27;41881;-79
2023/07/13 11:09:56;;;;;;;2.60;1.20;;;;;;;33.91;23.79;99093.44;5132305;27;45844;-79
2023/07/13 11:12:47;;;;;;;1.63;1.10;;;;;;;34.08;23.53;99090.78;5130663;27;41183;-80
2023/07/13 11:15:15;;;;;;;2.90;1.37;;;;;;;34.32;24.05;99097.94;5128242;27;40963;-79
2023/07/13 11:17:59;;;;;;;2.50;1.10;;;;;;;34.34;23.14;99082.03;5113668;27;40502;-80
2023/07/13 11:20:36;;;;;;;2.23;1.20;;;;;;;34.58;24.02;99075.34;5113743;27;42112;-79
2023/07/13 11:23:30;;;;;;;3.67;1.30;;;;;;;34.45;23.94;99083.91;5130781;27;43014;-79
2023/07/13 11:25:59;;;;;;;2.83;1.13;;;;;;;34.19;23.52;99096.25;5126063;27;40299;-79
2023/07/13 11:28:31;;;;;;;2.30;1.23;;;;;;;34.07;23.35;99087.19;5113101;27;40599;-80
2023/07/13 11:31:05;;;;;;;1.93;1.20;;;;;;;33.99;23.74;99078.50;5113853;27;42250;-79
2023/07/13 11:33:58;;;;;;;2.40;1.27;;;;;;;34.19;23.56;99088.00;5131545;27;42344;-78
2023/07/13 11:36:32;;;;;;;1.53;1.20;;;;;;;34.00;23.68;99075.50;5129058;27;40206;-78
2023/07/13 11:39:05;;;;;;;2.73;1.20;;;;;;;33.72;23.86;99078.16;5133040;27;41779;-82
2023/07/13 11:41:38;;;;;;;2.57;1.23;;;;;;;33.42;23.91;99079.09;5134441;27;41945;-81
2023/07/13 11:44:14;;;;;;;2.73;1.17;;;;;;;33.39;23.89;99079.56;5117521;27;41183;-79
2023/07/13 11:46:47;;;;;;;4.10;1.30;;;;;;;33.39;24.39;99076.81;5117261;27;39081;-78